sensor_id;sensor_type;location;lat;lon;timestamp;pressure;altitude;pressure_sealevel;temperature;humidity
71145;BME280;58812;47.698;17.726;2023-08-08T00:00:47;100293.59;;;13.87;88.63
71145;BME280;58812;47.698;17.726;2023-08-08T00:03:12;100292.75;;;13.95;87.58
71145;BME280;58812;47.698;17.726;2023-08-08T00:05:38;100286.69;;;14.09;89.92
71145;BME280;58812;47.698;17.726;2023-08-08T00:08:03;100291.91;;;14.02;88.03
71145;BME280;58812;47.698;17.726;2023-08-08T00:10:29;100289.22;;;14.10;87.43
71145;BME280;58812;47.698;17.726;2023-08-08T00:12:54;100296.97;;;13.89;86.69
71145;BME280;58812;47.698;17.726;2023-08-08T00:15:20;100287.87;;;13.98;87.89
71145;BME280;58812;47.698;17.726;2023-08-08T00:17:46;100302.19;;;14.15;87.27
71145;BME280;58812;47.698;17.726;2023-08-08T00:20:11;100298.66;;;13.90;86.51
71145;BME280;58812;47.698;17.726;2023-08-08T00:22:37;100305.19;;;14.04;87.89
71145;BME280;58812;47.698;17.726;2023-08-08T00:25:02;100308.06;;;14.02;87.83
71145;BME280;58812;47.698;17.726;2023-08-08T00:27:28;100306.72;;;13.98;87.91
71145;BME280;58812;47.698;17.726;2023-08-08T00:29:54;100307.56;;;13.90;86.83
71145;BME280;58812;47.698;17.726;2023-08-08T00:32:20;100306.38;;;14.09;89.51
71145;BME280;58812;47.698;17.726;2023-08-08T00:34:45;100302.69;;;13.94;86.36
71145;BME280;58812;47.698;17.726;2023-08-08T00:37:11;100316.13;;;14.10;87.37
71145;BME280;58812;47.698;17.726;2023-08-08T00:39:36;100312.78;;;14.08;86.92
71145;BME280;58812;47.698;17.726;2023-08-08T00:42:02;100320.16;;;13.98;85.97
71145;BME280;58812;47.698;17.726;2023-08-08T00:44:28;100313.78;;;13.99;86.55
71145;BME280;58812;47.698;17.726;2023-08-08T00:46:53;100308.22;;;14.09;88.28
71145;BME280;58812;47.698;17.726;2023-08-08T00:49:19;100307.22;;;14.02;87.56
71145;BME280;58812;47.698;17.726;2023-08-08T00:51:45;100308.06;;;14.02;87.00
71145;BME280;58812;47.698;17.726;2023-08-08T00:54:12;100309.44;;;14.06;87.67
71145;BME280;58812;47.698;17.726;2023-08-08T00:56:38;100311.78;;;14.18;87.60
71145;BME280;58812;47.698;17.726;2023-08-08T00:59:04;100313.78;;;13.99;86.52
71145;BME280;58812;47.698;17.726;2023-08-08T01:01:30;100320.69;;;14.02;86.61
71145;BME280;58812;47.698;17.726;2023-08-08T01:03:56;100311.44;;;14.04;88.53
71145;BME280;58812;47.698;17.726;2023-08-08T01:06:29;100303.69;;;13.77;85.71
71145;BME280;58812;47.698;17.726;2023-08-08T01:09:01;100313.75;;;13.67;86.54
71145;BME280;58812;47.698;17.726;2023-08-08T01:11:31;100313.09;;;13.65;87.59
71145;BME280;58812;47.698;17.726;2023-08-08T01:14:00;100317.75;;;13.62;87.77
71145;BME280;58812;47.698;17.726;2023-08-08T01:16:26;100318.16;;;13.76;88.24
71145;BME280;58812;47.698;17.726;2023-08-08T01:18:53;100325.34;;;13.59;86.61
71145;BME280;58812;47.698;17.726;2023-08-08T01:21:18;100328.16;;;13.57;87.31
71145;BME280;58812;47.698;17.726;2023-08-08T01:23:56;100328.53;;;13.62;87.81
71145;BME280;58812;47.698;17.726;2023-08-08T01:26:26;100333.91;;;13.62;87.53
71145;BME280;58812;47.698;17.726;2023-08-08T01:28:54;100326.88;;;13.78;87.49
71145;BME280;58812;47.698;17.726;2023-08-08T01:31:20;100334.75;;;13.63;86.70
71145;BME280;58812;47.698;17.726;2023-08-08T01:33:46;100329.72;;;13.60;86.52
71145;BME280;58812;47.698;17.726;2023-08-08T01:36:28;100341.00;;;13.80;86.69
71145;BME280;58812;47.698;17.726;2023-08-08T01:38:59;100341.50;;;13.75;87.72
71145;BME280;58812;47.698;17.726;2023-08-08T01:41:31;100343.22;;;13.76;89.12
71145;BME280;58812;47.698;17.726;2023-08-08T01:43:58;100336.31;;;13.82;87.90
71145;BME280;58812;47.698;17.726;2023-08-08T01:46:24;100338.00;;;13.91;88.73
71145;BME280;58812;47.698;17.726;2023-08-08T01:48:50;100343.56;;;13.98;88.37
71145;BME280;58812;47.698;17.726;2023-08-08T01:51:15;100344.91;;;13.94;87.04
71145;BME280;58812;47.698;17.726;2023-08-08T01:53:41;100354.28;;;13.81;87.48
71145;BME280;58812;47.698;17.726;2023-08-08T01:56:06;100350.09;;;13.71;87.79
71145;BME280;58812;47.698;17.726;2023-08-08T01:58:32;100350.44;;;13.76;89.15
71145;BME280;58812;47.698;17.726;2023-08-08T02:00:57;100346.69;;;13.60;87.06
71145;BME280;58812;47.698;17.726;2023-08-08T02:03:23;100341.50;;;13.75;89.21
71145;BME280;58812;47.698;17.726;2023-08-08T02:05:48;100358.69;;;13.82;91.84
71145;BME280;58812;47.698;17.726;2023-08-08T02:08:14;100356.78;;;13.67;89.05
71145;BME280;58812;47.698;17.726;2023-08-08T02:10:40;100350.09;;;13.79;89.33
71145;BME280;58812;47.698;17.726;2023-08-08T02:13:05;100354.47;;;13.72;89.83
71145;BME280;58812;47.698;17.726;2023-08-08T02:15:31;100357.81;;;13.74;88.84
71145;BME280;58812;47.698;17.726;2023-08-08T02:17:56;100348.97;;;13.39;88.60
71145;BME280;58812;47.698;17.726;2023-08-08T02:20:22;100358.41;;;13.43;90.23
71145;BME280;58812;47.698;17.726;2023-08-08T02:22:47;100364.78;;;13.42;91.12
71145;BME280;58812;47.698;17.726;2023-08-08T02:25:12;100359.50;;;13.24;89.67
71145;BME280;58812;47.698;17.726;2023-08-08T02:27:38;100357.66;;;13.25;89.83
71145;BME280;58812;47.698;17.726;2023-08-08T02:30:04;100361.06;;;13.35;92.32
71145;BME280;58812;47.698;17.726;2023-08-08T02:32:29;100364.06;;;13.32;89.58
71145;BME280;58812;47.698;17.726;2023-08-08T02:34:55;100365.34;;;13.20;89.73
71145;BME280;58812;47.698;17.726;2023-08-08T02:37:20;100363.56;;;13.02;89.86
71145;BME280;58812;47.698;17.726;2023-08-08T02:39:45;100370.34;;;13.15;91.50
71145;BME280;58812;47.698;17.726;2023-08-08T02:42:11;100364.41;;;13.29;92.90
71145;BME280;58812;47.698;17.726;2023-08-08T02:44:36;100364.66;;;13.18;90.87
71145;BME280;58812;47.698;17.726;2023-08-08T02:47:02;100367.25;;;13.01;91.33
71145;BME280;58812;47.698;17.726;2023-08-08T02:49:27;100373.00;;;13.06;90.46
71145;BME280;58812;47.698;17.726;2023-08-08T02:51:53;100371.25;;;12.97;90.04
71145;BME280;58812;47.698;17.726;2023-08-08T02:54:19;100377.91;;;13.11;92.01
71145;BME280;58812;47.698;17.726;2023-08-08T02:56:44;100377.50;;;13.24;91.89
71145;BME280;58812;47.698;17.726;2023-08-08T02:59:10;100379.31;;;12.97;91.16
71145;BME280;58812;47.698;17.726;2023-08-08T03:01:35;100384.12;;;13.12;91.64
71145;BME280;58812;47.698;17.726;2023-08-08T03:04:05;100385.47;;;13.16;93.70
71145;BME280;58812;47.698;17.726;2023-08-08T03:06:30;100395.19;;;12.82;91.23
71145;BME280;58812;47.698;17.726;2023-08-08T03:08:56;100392.91;;;12.96;93.93
71145;BME280;58812;47.698;17.726;2023-08-08T03:11:21;100390.56;;;12.93;93.55
71145;BME280;58812;47.698;17.726;2023-08-08T03:13:46;100391.62;;;13.00;93.54
71145;BME280;58812;47.698;17.726;2023-08-08T03:16:12;100398.03;;;12.81;92.93
71145;BME280;58812;47.698;17.726;2023-08-08T03:18:37;100409.09;;;12.78;93.76
71145;BME280;58812;47.698;17.726;2023-08-08T03:21:03;100404.34;;;12.72;93.80
71145;BME280;58812;47.698;17.726;2023-08-08T03:23:28;100411.94;;;12.76;94.97
71145;BME280;58812;47.698;17.726;2023-08-08T03:25:53;100418.09;;;12.51;92.60
71145;BME280;58812;47.698;17.726;2023-08-08T03:28:19;100419.41;;;12.65;95.28
71145;BME280;58812;47.698;17.726;2023-08-08T03:30:44;100407.03;;;12.28;95.52
71145;BME280;58812;47.698;17.726;2023-08-08T03:33:10;100416.59;;;12.30;96.54
71145;BME280;58812;47.698;17.726;2023-08-08T03:35:35;100415.53;;;12.23;96.40
71145;BME280;58812;47.698;17.726;2023-08-08T03:38:00;100413.97;;;12.03;96.74
71145;BME280;58812;47.698;17.726;2023-08-08T03:40:26;100420.72;;;12.07;97.90
71145;BME280;58812;47.698;17.726;2023-08-08T03:42:51;100413.13;;;12.38;99.31
71145;BME280;58812;47.698;17.726;2023-08-08T03:45:17;100421.19;;;12.38;98.40
71145;BME280;58812;47.698;17.726;2023-08-08T03:47:42;100418.00;;;12.35;98.28
71145;BME280;58812;47.698;17.726;2023-08-08T03:50:08;100419.13;;;12.32;97.59
71145;BME280;58812;47.698;17.726;2023-08-08T03:52:35;100423.59;;;12.41;99.52
71145;BME280;58812;47.698;17.726;2023-08-08T03:55:03;100423.03;;;12.38;98.63
71145;BME280;58812;47.698;17.726;2023-08-08T03:57:28;100424.97;;;12.10;98.14
71145;BME280;58812;47.698;17.726;2023-08-08T03:59:54;100433.47;;;12.23;100.00
71145;BME280;58812;47.698;17.726;2023-08-08T04:02:19;100426.09;;;12.07;98.71
71145;BME280;58812;47.698;17.726;2023-08-08T04:04:44;100436.47;;;12.20;99.10
71145;BME280;58812;47.698;17.726;2023-08-08T04:07:10;100430.78;;;12.23;99.18
71145;BME280;58812;47.698;17.726;2023-08-08T04:09:35;100436.63;;;12.36;99.74
71145;BME280;58812;47.698;17.726;2023-08-08T04:12:01;100448.19;;;12.37;98.70
71145;BME280;58812;47.698;17.726;2023-08-08T04:14:26;100440.75;;;12.13;98.18
71145;BME280;58812;47.698;17.726;2023-08-08T04:16:52;100442.28;;;12.33;98.62
71145;BME280;58812;47.698;17.726;2023-08-08T04:19:17;100448.59;;;12.42;98.32
71145;BME280;58812;47.698;17.726;2023-08-08T04:21:43;100445.50;;;12.54;96.33
71145;BME280;58812;47.698;17.726;2023-08-08T04:24:08;100442.50;;;12.75;95.32
71145;BME280;58812;47.698;17.726;2023-08-08T04:26:33;100450.41;;;12.77;94.84
71145;BME280;58812;47.698;17.726;2023-08-08T04:28:59;100439.22;;;13.16;94.44
71145;BME280;58812;47.698;17.726;2023-08-08T04:31:24;100445.75;;;13.31;93.33
71145;BME280;58812;47.698;17.726;2023-08-08T04:33:51;100443.34;;;13.28;92.70
71145;BME280;58812;47.698;17.726;2023-08-08T04:36:17;100450.94;;;13.32;92.20
71145;BME280;58812;47.698;17.726;2023-08-08T04:38:42;100451.13;;;13.31;92.38
71145;BME280;58812;47.698;17.726;2023-08-08T04:41:07;100453.56;;;13.50;91.99
71145;BME280;58812;47.698;17.726;2023-08-08T04:43:33;100452.28;;;13.62;90.89
71145;BME280;58812;47.698;17.726;2023-08-08T04:45:58;100450.94;;;13.58;91.36
71145;BME280;58812;47.698;17.726;2023-08-08T04:48:24;100455.97;;;13.61;90.63
71145;BME280;58812;47.698;17.726;2023-08-08T04:50:49;100449.66;;;13.87;90.68
71145;BME280;58812;47.698;17.726;2023-08-08T04:53:15;100447.03;;;13.95;89.75
71145;BME280;58812;47.698;17.726;2023-08-08T04:55:40;100454.84;;;14.39;87.87
71145;BME280;58812;47.698;17.726;2023-08-08T04:58:05;100454.37;;;14.52;86.85
71145;BME280;58812;47.698;17.726;2023-08-08T05:00:31;100465.31;;;14.75;85.73
71145;BME280;58812;47.698;17.726;2023-08-08T05:02:56;100453.03;;;14.80;84.67
71145;BME280;58812;47.698;17.726;2023-08-08T05:05:22;100465.66;;;14.96;84.71
71145;BME280;58812;47.698;17.726;2023-08-08T05:07:47;100463.78;;;15.13;82.89
71145;BME280;58812;47.698;17.726;2023-08-08T05:10:13;100462.28;;;15.02;84.15
71145;BME280;58812;47.698;17.726;2023-08-08T05:12:39;100469.62;;;15.33;82.27
71145;BME280;58812;47.698;17.726;2023-08-08T05:15:05;100470.91;;;15.69;80.62
71145;BME280;58812;47.698;17.726;2023-08-08T05:17:30;100478.63;;;15.81;79.70
71145;BME280;58812;47.698;17.726;2023-08-08T05:19:59;100486.47;;;15.43;77.31
71145;BME280;58812;47.698;17.726;2023-08-08T05:22:25;100485.09;;;15.71;77.06
71145;BME280;58812;47.698;17.726;2023-08-08T05:24:50;100481.59;;;15.94;78.33
71145;BME280;58812;47.698;17.726;2023-08-08T05:27:16;100481.06;;;15.98;77.44
71145;BME280;58812;47.698;17.726;2023-08-08T05:29:41;100489.16;;;16.29;76.60
71145;BME280;58812;47.698;17.726;2023-08-08T05:32:07;100491.22;;;16.50;74.22
71145;BME280;58812;47.698;17.726;2023-08-08T05:34:34;100488.97;;;16.00;74.47
71145;BME280;58812;47.698;17.726;2023-08-08T05:36:59;100493.41;;;16.01;74.17
71145;BME280;58812;47.698;17.726;2023-08-08T05:39:24;100501.13;;;16.35;74.90
71145;BME280;58812;47.698;17.726;2023-08-08T05:41:50;100496.38;;;16.60;74.19
71145;BME280;58812;47.698;17.726;2023-08-08T05:44:15;100502.16;;;16.57;72.58
71145;BME280;58812;47.698;17.726;2023-08-08T05:46:41;100505.81;;;16.72;73.12
71145;BME280;58812;47.698;17.726;2023-08-08T05:49:06;100499.38;;;16.19;72.39
71145;BME280;58812;47.698;17.726;2023-08-08T05:51:32;100502.44;;;16.70;72.16
71145;BME280;58812;47.698;17.726;2023-08-08T05:53:57;100508.34;;;16.74;71.79
71145;BME280;58812;47.698;17.726;2023-08-08T05:56:23;100502.78;;;16.67;72.82
71145;BME280;58812;47.698;17.726;2023-08-08T05:58:48;100501.09;;;16.66;73.18
71145;BME280;58812;47.698;17.726;2023-08-08T06:01:14;100501.63;;;16.39;73.93
71145;BME280;58812;47.698;17.726;2023-08-08T06:03:39;100499.28;;;16.59;75.03
71145;BME280;58812;47.698;17.726;2023-08-08T06:06:05;100495.72;;;16.58;75.63
71145;BME280;58812;47.698;17.726;2023-08-08T06:08:31;100491.56;;;16.24;74.19
71145;BME280;58812;47.698;17.726;2023-08-08T06:10:57;100497.25;;;16.38;73.55
71145;BME280;58812;47.698;17.726;2023-08-08T06:13:23;100501.44;;;16.40;73.13
71145;BME280;58812;47.698;17.726;2023-08-08T06:15:48;100498.56;;;16.65;74.50
71145;BME280;58812;47.698;17.726;2023-08-08T06:18:13;100498.13;;;16.84;73.88
71145;BME280;58812;47.698;17.726;2023-08-08T06:20:39;100505.81;;;16.72;73.50
71145;BME280;58812;47.698;17.726;2023-08-08T06:23:05;100506.81;;;16.94;72.83
71145;BME280;58812;47.698;17.726;2023-08-08T06:25:30;100510.50;;;16.78;71.16
71145;BME280;58812;47.698;17.726;2023-08-08T06:27:55;100506.03;;;16.86;73.17
71145;BME280;58812;47.698;17.726;2023-08-08T06:30:21;100508.41;;;16.58;73.25
71145;BME280;58812;47.698;17.726;2023-08-08T06:32:46;100509.94;;;16.83;74.36
71145;BME280;58812;47.698;17.726;2023-08-08T06:35:12;100514.56;;;16.97;74.04
71145;BME280;58812;47.698;17.726;2023-08-08T06:37:37;100513.59;;;16.36;74.79
71145;BME280;58812;47.698;17.726;2023-08-08T06:40:03;100509.50;;;16.71;74.34
71145;BME280;58812;47.698;17.726;2023-08-08T06:42:29;100501.84;;;16.52;74.74
71145;BME280;58812;47.698;17.726;2023-08-08T06:44:54;100508.53;;;16.72;74.79
71145;BME280;58812;47.698;17.726;2023-08-08T06:47:20;100503.81;;;16.66;74.56
71145;BME280;58812;47.698;17.726;2023-08-08T06:49:45;100513.59;;;16.67;72.70
71145;BME280;58812;47.698;17.726;2023-08-08T06:52:10;100503.12;;;16.64;73.47
71145;BME280;58812;47.698;17.726;2023-08-08T06:54:36;100511.44;;;16.86;71.34
71145;BME280;58812;47.698;17.726;2023-08-08T06:57:01;100509.47;;;16.79;70.20
71145;BME280;58812;47.698;17.726;2023-08-08T06:59:27;100506.75;;;17.84;68.40
71145;BME280;58812;47.698;17.726;2023-08-08T07:01:53;100506.19;;;18.04;66.10
71145;BME280;58812;47.698;17.726;2023-08-08T07:04:18;100513.38;;;18.90;65.88
71145;BME280;58812;47.698;17.726;2023-08-08T07:06:44;100512.81;;;18.95;65.61
71145;BME280;58812;47.698;17.726;2023-08-08T07:09:10;100510.75;;;19.81;60.92
71145;BME280;58812;47.698;17.726;2023-08-08T07:11:39;100510.75;;;19.81;61.94
71145;BME280;58812;47.698;17.726;2023-08-08T07:14:04;100507.59;;;18.93;60.28
71145;BME280;58812;47.698;17.726;2023-08-08T07:16:29;100512.97;;;19.15;61.96
71145;BME280;58812;47.698;17.726;2023-08-08T07:18:55;100524.53;;;19.52;58.91
71145;BME280;58812;47.698;17.726;2023-08-08T07:21:20;100524.22;;;20.02;58.43
71145;BME280;58812;47.698;17.726;2023-08-08T07:23:46;100533.66;;;20.07;57.03
71145;BME280;58812;47.698;17.726;2023-08-08T07:26:11;100534.22;;;20.43;56.26
71145;BME280;58812;47.698;17.726;2023-08-08T07:28:37;100530.66;;;20.36;56.13
71145;BME280;58812;47.698;17.726;2023-08-08T07:31:03;100529.78;;;20.29;56.70
71145;BME280;58812;47.698;17.726;2023-08-08T07:33:28;100526.19;;;20.70;56.84
71145;BME280;58812;47.698;17.726;2023-08-08T07:35:53;100535.78;;;20.66;55.40
71145;BME280;58812;47.698;17.726;2023-08-08T07:38:19;100534.94;;;20.11;56.80
71145;BME280;58812;47.698;17.726;2023-08-08T07:40:44;100532.16;;;20.04;57.26
71145;BME280;58812;47.698;17.726;2023-08-08T07:43:11;100535.91;;;19.96;55.77
71145;BME280;58812;47.698;17.726;2023-08-08T07:45:37;100529.31;;;20.80;55.81
71145;BME280;58812;47.698;17.726;2023-08-08T07:48:03;100527.47;;;20.94;54.10
71145;BME280;58812;47.698;17.726;2023-08-08T07:50:28;100518.69;;;20.24;57.03
71145;BME280;58812;47.698;17.726;2023-08-08T07:52:54;100532.91;;;21.00;54.28
71145;BME280;58812;47.698;17.726;2023-08-08T07:55:19;100524.38;;;21.30;52.65
71145;BME280;58812;47.698;17.726;2023-08-08T07:57:45;100522.22;;;20.99;53.78
71145;BME280;58812;47.698;17.726;2023-08-08T08:00:11;100513.84;;;21.07;53.34
71145;BME280;58812;47.698;17.726;2023-08-08T08:02:41;100516.41;;;21.35;52.93
71145;BME280;58812;47.698;17.726;2023-08-08T08:05:07;100517.09;;;21.95;51.24
71145;BME280;58812;47.698;17.726;2023-08-08T08:07:34;100510.19;;;21.86;51.43
71145;BME280;58812;47.698;17.726;2023-08-08T08:10:01;100508.97;;;20.56;55.56
71145;BME280;58812;47.698;17.726;2023-08-08T08:12:27;100510.25;;;20.06;55.61
71145;BME280;58812;47.698;17.726;2023-08-08T08:14:52;100506.91;;;20.65;55.58
71145;BME280;58812;47.698;17.726;2023-08-08T08:17:17;100510.47;;;20.59;54.16
71145;BME280;58812;47.698;17.726;2023-08-08T08:19:43;100512.28;;;20.51;53.82
71145;BME280;58812;47.698;17.726;2023-08-08T08:22:08;100503.53;;;20.63;54.02
71145;BME280;58812;47.698;17.726;2023-08-08T08:24:34;100507.56;;;20.19;52.94
71145;BME280;58812;47.698;17.726;2023-08-08T08:27:00;100509.28;;;20.26;52.78
71145;BME280;58812;47.698;17.726;2023-08-08T08:29:25;100510.78;;;20.42;53.05
71145;BME280;58812;47.698;17.726;2023-08-08T08:31:50;100508.78;;;20.64;52.96
71145;BME280;58812;47.698;17.726;2023-08-08T08:34:16;100508.84;;;21.24;52.56
71145;BME280;58812;47.698;17.726;2023-08-08T08:36:41;100497.75;;;21.05;52.30
71145;BME280;58812;47.698;17.726;2023-08-08T08:39:07;100507.19;;;21.29;51.75
71145;BME280;58812;47.698;17.726;2023-08-08T08:41:35;100511.22;;;21.98;50.54
71145;BME280;58812;47.698;17.726;2023-08-08T08:44:01;100509.44;;;22.30;49.18
71145;BME280;58812;47.698;17.726;2023-08-08T08:46:28;100505.13;;;22.09;49.66
71145;BME280;58812;47.698;17.726;2023-08-08T08:48:54;100506.16;;;22.08;50.29
71145;BME280;58812;47.698;17.726;2023-08-08T08:51:22;100502.31;;;20.85;50.67
71145;BME280;58812;47.698;17.726;2023-08-08T08:53:47;100505.69;;;21.33;51.82
71145;BME280;58812;47.698;17.726;2023-08-08T08:56:16;100506.31;;;20.76;52.54
71145;BME280;58812;47.698;17.726;2023-08-08T08:58:42;100518.47;;;21.33;51.55
71145;BME280;58812;47.698;17.726;2023-08-08T09:01:09;100497.72;;;21.25;51.28
71145;BME280;58812;47.698;17.726;2023-08-08T09:03:35;100503.19;;;21.05;51.86
71145;BME280;58812;47.698;17.726;2023-08-08T09:06:02;100507.97;;;20.97;50.31
71145;BME280;58812;47.698;17.726;2023-08-08T09:08:28;100501.72;;;21.23;49.98
71145;BME280;58812;47.698;17.726;2023-08-08T09:10:55;100504.44;;;21.43;48.92
71145;BME280;58812;47.698;17.726;2023-08-08T09:13:22;100511.56;;;21.17;50.99
71145;BME280;58812;47.698;17.726;2023-08-08T09:15:48;100500.88;;;21.42;49.73
71145;BME280;58812;47.698;17.726;2023-08-08T09:18:16;100506.72;;;21.26;51.92
71145;BME280;58812;47.698;17.726;2023-08-08T09:20:49;100509.88;;;20.83;51.30
71145;BME280;58812;47.698;17.726;2023-08-08T09:23:15;100503.59;;;21.02;51.78
71145;BME280;58812;47.698;17.726;2023-08-08T09:25:40;100499.34;;;20.53;50.52
71145;BME280;58812;47.698;17.726;2023-08-08T09:28:06;100511.59;;;21.30;49.01
71145;BME280;58812;47.698;17.726;2023-08-08T09:30:31;100502.38;;;22.03;48.72
71145;BME280;58812;47.698;17.726;2023-08-08T09:33:01;100507.56;;;22.31;49.39
71145;BME280;58812;47.698;17.726;2023-08-08T09:35:28;100508.66;;;20.31;50.03
71145;BME280;58812;47.698;17.726;2023-08-08T09:37:54;100506.94;;;20.17;51.58
71145;BME280;58812;47.698;17.726;2023-08-08T09:40:20;100507.97;;;21.56;50.91
71145;BME280;58812;47.698;17.726;2023-08-08T09:42:46;100505.16;;;22.79;46.19
71145;BME280;58812;47.698;17.726;2023-08-08T09:45:12;100508.25;;;22.51;47.77
71145;BME280;58812;47.698;17.726;2023-08-08T09:47:37;100497.34;;;21.35;48.09
71145;BME280;58812;47.698;17.726;2023-08-08T09:50:03;100505.88;;;21.65;50.33
71145;BME280;58812;47.698;17.726;2023-08-08T09:52:36;100498.03;;;22.40;48.02
71145;BME280;58812;47.698;17.726;2023-08-08T09:55:04;100503.78;;;23.45;46.04
71145;BME280;58812;47.698;17.726;2023-08-08T09:57:30;100492.44;;;22.98;45.04
71145;BME280;58812;47.698;17.726;2023-08-08T09:59:55;100492.53;;;23.96;45.28
71145;BME280;58812;47.698;17.726;2023-08-08T10:02:21;100482.22;;;24.29;42.00
71145;BME280;58812;47.698;17.726;2023-08-08T10:04:47;100494.00;;;24.47;43.09
71145;BME280;58812;47.698;17.726;2023-08-08T10:07:13;100481.53;;;24.33;43.19
71145;BME280;58812;47.698;17.726;2023-08-08T10:09:39;100472.50;;;25.16;41.74
71145;BME280;58812;47.698;17.726;2023-08-08T10:12:06;100476.06;;;25.05;39.83
71145;BME280;58812;47.698;17.726;2023-08-08T10:14:36;100475.00;;;23.86;43.03
71145;BME280;58812;47.698;17.726;2023-08-08T10:17:04;100480.75;;;24.14;42.03
71145;BME280;58812;47.698;17.726;2023-08-08T10:19:30;100464.72;;;23.99;43.63
71145;BME280;58812;47.698;17.726;2023-08-08T10:22:02;100466.28;;;24.25;41.12
71145;BME280;58812;47.698;17.726;2023-08-08T10:24:35;100468.28;;;24.00;44.92
71145;BME280;58812;47.698;17.726;2023-08-08T10:27:02;100458.56;;;24.64;40.58
71145;BME280;58812;47.698;17.726;2023-08-08T10:29:31;100449.94;;;23.70;44.43
71145;BME280;58812;47.698;17.726;2023-08-08T10:32:04;100446.81;;;24.64;43.07
71145;BME280;58812;47.698;17.726;2023-08-08T10:34:41;100438.13;;;24.67;42.25
71145;BME280;58812;47.698;17.726;2023-08-08T10:37:11;100437.47;;;23.56;43.39
71145;BME280;58812;47.698;17.726;2023-08-08T10:39:37;100436.34;;;22.71;46.18
71145;BME280;58812;47.698;17.726;2023-08-08T10:42:04;100443.09;;;23.61;44.28
71145;BME280;58812;47.698;17.726;2023-08-08T10:44:30;100440.75;;;24.73;43.52
71145;BME280;58812;47.698;17.726;2023-08-08T10:46:56;100433.69;;;23.76;42.62
71145;BME280;58812;47.698;17.726;2023-08-08T10:49:21;100441.06;;;24.54;42.75
71145;BME280;58812;47.698;17.726;2023-08-08T10:51:48;100434.00;;;22.74;45.25
71145;BME280;58812;47.698;17.726;2023-08-08T10:54:23;100438.06;;;23.58;43.79
71145;BME280;58812;47.698;17.726;2023-08-08T10:56:54;100437.13;;;24.01;42.94
71145;BME280;58812;47.698;17.726;2023-08-08T10:59:35;100440.94;;;24.60;40.87
71145;BME280;58812;47.698;17.726;2023-08-08T11:02:01;100440.84;;;25.20;40.26
71145;BME280;58812;47.698;17.726;2023-08-08T11:04:27;100430.84;;;24.31;39.19
71145;BME280;58812;47.698;17.726;2023-08-08T11:06:54;100430.09;;;25.07;40.02
71145;BME280;58812;47.698;17.726;2023-08-08T11:09:20;100437.91;;;24.08;40.73
71145;BME280;58812;47.698;17.726;2023-08-08T11:11:46;100450.34;;;23.31;42.35
71145;BME280;58812;47.698;17.726;2023-08-08T11:14:15;100450.66;;;22.66;45.38
71145;BME280;58812;47.698;17.726;2023-08-08T11:16:42;100444.13;;;22.99;45.31
71145;BME280;58812;47.698;17.726;2023-08-08T11:19:09;100447.37;;;23.32;44.34
71145;BME280;58812;47.698;17.726;2023-08-08T11:21:36;100454.75;;;22.50;45.88
71145;BME280;58812;47.698;17.726;2023-08-08T11:24:04;100445.56;;;21.15;47.85
71145;BME280;58812;47.698;17.726;2023-08-08T11:26:30;100438.69;;;20.86;48.69
71145;BME280;58812;47.698;17.726;2023-08-08T11:28:58;100452.28;;;20.66;50.17
71145;BME280;58812;47.698;17.726;2023-08-08T11:31:24;100453.69;;;20.42;50.97
71145;BME280;58812;47.698;17.726;2023-08-08T11:33:50;100465.66;;;19.87;52.81
71145;BME280;58812;47.698;17.726;2023-08-08T11:36:16;100462.50;;;19.55;53.89
71145;BME280;58812;47.698;17.726;2023-08-08T11:38:42;100456.56;;;19.38;55.41
71145;BME280;58812;47.698;17.726;2023-08-08T11:41:15;100466.47;;;19.53;57.82
71145;BME280;58812;47.698;17.726;2023-08-08T11:43:41;100452.72;;;19.26;59.11
71145;BME280;58812;47.698;17.726;2023-08-08T11:46:12;100457.63;;;19.72;58.97
71145;BME280;58812;47.698;17.726;2023-08-08T11:48:38;100457.41;;;19.73;59.94
71145;BME280;58812;47.698;17.726;2023-08-08T11:51:05;100456.31;;;19.61;61.03
71145;BME280;58812;47.698;17.726;2023-08-08T11:53:30;100442.31;;;20.06;60.12
71145;BME280;58812;47.698;17.726;2023-08-08T11:55:57;100437.78;;;21.52;55.77
71145;BME280;58812;47.698;17.726;2023-08-08T11:58:26;100442.44;;;21.96;55.44
71145;BME280;58812;47.698;17.726;2023-08-08T12:00:52;100441.84;;;22.64;52.82
71145;BME280;58812;47.698;17.726;2023-08-08T12:03:20;100429.09;;;23.33;51.30
71145;BME280;58812;47.698;17.726;2023-08-08T12:05:46;100431.41;;;23.73;50.14
71145;BME280;58812;47.698;17.726;2023-08-08T12:08:12;100433.81;;;23.99;48.76
71145;BME280;58812;47.698;17.726;2023-08-08T12:10:38;100433.75;;;24.17;48.37
71145;BME280;58812;47.698;17.726;2023-08-08T12:13:03;100424.78;;;24.29;47.72
71145;BME280;58812;47.698;17.726;2023-08-08T12:15:31;100409.47;;;24.93;47.46
71145;BME280;58812;47.698;17.726;2023-08-08T12:18:01;100410.91;;;25.19;44.45
71145;BME280;58812;47.698;17.726;2023-08-08T12:20:31;100409.59;;;25.45;42.83
71145;BME280;58812;47.698;17.726;2023-08-08T12:22:57;100402.44;;;25.44;44.96
71145;BME280;58812;47.698;17.726;2023-08-08T12:25:23;100397.69;;;24.92;46.47
71145;BME280;58812;47.698;17.726;2023-08-08T12:27:48;100398.53;;;25.16;46.87
71145;BME280;58812;47.698;17.726;2023-08-08T12:30:14;100412.41;;;24.56;46.70
71145;BME280;58812;47.698;17.726;2023-08-08T12:32:40;100401.56;;;24.49;46.17
71145;BME280;58812;47.698;17.726;2023-08-08T12:35:06;100402.09;;;23.61;47.48